sensor_id;sensor_type;location;lat;lon;timestamp;P1;durP1;ratioP1;P2;durP2;ratioP2
69954;SDS011;57279;55.912;37.490;2023-02-01T00:02:24;14.23;;;5.07;;
69954;SDS011;57279;55.912;37.490;2023-02-01T00:04:49;15.85;;;5.68;;
69954;SDS011;57279;55.912;37.490;2023-02-01T00:07:15;19.05;;;6.55;;
69954;SDS011;57279;55.912;37.490;2023-02-01T00:09:41;16.20;;;5.95;;
69954;SDS011;57279;55.912;37.490;2023-02-01T00:12:06;20.90;;;6.97;;
69954;SDS011;57279;55.912;37.490;2023-02-01T00:14:32;20.27;;;7.57;;
69954;SDS011;57279;55.912;37.490;2023-02-01T00:17:06;19.92;;;7.20;;
69954;SDS011;57279;55.912;37.490;2023-02-01T00:19:32;19.65;;;7.00;;
69954;SDS011;57279;55.912;37.490;2023-02-01T00:24:24;18.95;;;7.15;;
69954;SDS011;57279;55.912;37.490;2023-02-01T00:26:50;22.55;;;7.60;;
69954;SDS011;57279;55.912;37.490;2023-02-01T00:29:16;19.40;;;7.25;;
69954;SDS011;57279;55.912;37.490;2023-02-01T00:31:44;18.73;;;7.47;;
69954;SDS011;57279;55.912;37.490;2023-02-01T00:34:11;20.77;;;8.15;;
69954;SDS011;57279;55.912;37.490;2023-02-01T00:36:39;21.42;;;8.07;;
69954;SDS011;57279;55.912;37.490;2023-02-01T00:39:05;23.63;;;8.43;;
69954;SDS011;57279;55.912;37.490;2023-02-01T00:41:31;22.27;;;8.43;;
69954;SDS011;57279;55.912;37.490;2023-02-01T00:43:57;24.70;;;8.82;;
69954;SDS011;57279;55.912;37.490;2023-02-01T00:46:22;19.15;;;7.93;;
69954;SDS011;57279;55.912;37.490;2023-02-01T00:48:48;21.10;;;7.70;;
69954;SDS011;57279;55.912;37.490;2023-02-01T00:51:16;24.05;;;8.40;;
69954;SDS011;57279;55.912;37.490;2023-02-01T00:53:45;25.38;;;8.90;;
69954;SDS011;57279;55.912;37.490;2023-02-01T00:56:10;22.33;;;8.32;;
69954;SDS011;57279;55.912;37.490;2023-02-01T00:58:36;23.95;;;8.10;;
69954;SDS011;57279;55.912;37.490;2023-02-01T01:01:06;24.73;;;9.30;;
69954;SDS011;57279;55.912;37.490;2023-02-01T01:03:34;23.02;;;8.25;;
69954;SDS011;57279;55.912;37.490;2023-02-01T01:06:03;22.80;;;8.57;;
69954;SDS011;57279;55.912;37.490;2023-02-01T01:08:31;23.67;;;8.43;;
69954;SDS011;57279;55.912;37.490;2023-02-01T01:10:56;19.05;;;7.68;;
69954;SDS011;57279;55.912;37.490;2023-02-01T01:13:23;21.70;;;8.38;;
69954;SDS011;57279;55.912;37.490;2023-02-01T01:15:49;21.48;;;8.57;;
69954;SDS011;57279;55.912;37.490;2023-02-01T01:18:14;18.98;;;7.00;;
69954;SDS011;57279;55.912;37.490;2023-02-01T01:20:40;20.90;;;7.68;;
69954;SDS011;57279;55.912;37.490;2023-02-01T01:23:07;24.45;;;8.05;;
69954;SDS011;57279;55.912;37.490;2023-02-01T01:25:37;21.25;;;8.02;;
69954;SDS011;57279;55.912;37.490;2023-02-01T01:28:04;20.63;;;7.97;;
69954;SDS011;57279;55.912;37.490;2023-02-01T01:32:56;24.70;;;7.80;;
69954;SDS011;57279;55.912;37.490;2023-02-01T01:35:21;21.10;;;7.93;;
69954;SDS011;57279;55.912;37.490;2023-02-01T01:37:47;19.95;;;7.65;;
69954;SDS011;57279;55.912;37.490;2023-02-01T01:40:13;20.45;;;7.30;;
69954;SDS011;57279;55.912;37.490;2023-02-01T01:42:39;24.08;;;8.55;;
69954;SDS011;57279;55.912;37.490;2023-02-01T01:45:22;20.00;;;7.13;;
69954;SDS011;57279;55.912;37.490;2023-02-01T01:47:53;22.08;;;7.45;;
69954;SDS011;57279;55.912;37.490;2023-02-01T01:51:04;22.35;;;7.45;;
69954;SDS011;57279;55.912;37.490;2023-02-01T01:55:42;21.17;;;7.45;;
69954;SDS011;57279;55.912;37.490;2023-02-01T01:58:12;20.10;;;8.05;;
69954;SDS011;57279;55.912;37.490;2023-02-01T02:00:43;21.90;;;7.60;;
69954;SDS011;57279;55.912;37.490;2023-02-01T02:03:19;21.73;;;7.57;;
69954;SDS011;57279;55.912;37.490;2023-02-01T02:05:49;22.60;;;7.68;;
69954;SDS011;57279;55.912;37.490;2023-02-01T02:08:16;19.48;;;7.00;;
69954;SDS011;57279;55.912;37.490;2023-02-01T02:10:46;18.50;;;7.07;;
69954;SDS011;57279;55.912;37.490;2023-02-01T02:13:33;23.23;;;7.43;;
69954;SDS011;57279;55.912;37.490;2023-02-01T02:18:31;21.25;;;7.32;;
69954;SDS011;57279;55.912;37.490;2023-02-01T02:36:54;18.35;;;6.82;;
69954;SDS011;57279;55.912;37.490;2023-02-01T02:39:29;20.52;;;7.25;;
69954;SDS011;57279;55.912;37.490;2023-02-01T02:45:13;18.48;;;6.53;;
69954;SDS011;57279;55.912;37.490;2023-02-01T02:54:23;20.00;;;7.50;;
69954;SDS011;57279;55.912;37.490;2023-02-01T02:57:13;18.67;;;6.53;;
69954;SDS011;57279;55.912;37.490;2023-02-01T03:00:02;19.67;;;7.28;;
69954;SDS011;57279;55.912;37.490;2023-02-01T03:02:49;18.75;;;7.35;;
69954;SDS011;57279;55.912;37.490;2023-02-01T03:05:34;21.20;;;7.95;;
69954;SDS011;57279;55.912;37.490;2023-02-01T03:08:03;17.27;;;6.78;;
69954;SDS011;57279;55.912;37.490;2023-02-01T03:13:15;19.63;;;7.57;;
69954;SDS011;57279;55.912;37.490;2023-02-01T03:21:39;21.42;;;7.40;;
69954;SDS011;57279;55.912;37.490;2023-02-01T03:24:23;19.10;;;7.32;;
69954;SDS011;57279;55.912;37.490;2023-02-01T03:30:29;21.40;;;7.55;;
69954;SDS011;57279;55.912;37.490;2023-02-01T03:32:46;26.08;;;7.55;;
69954;SDS011;57279;55.912;37.490;2023-02-01T03:35:30;21.13;;;7.45;;
69954;SDS011;57279;55.912;37.490;2023-02-01T03:38:04;19.10;;;7.07;;
69954;SDS011;57279;55.912;37.490;2023-02-01T03:40:36;22.08;;;7.28;;
69954;SDS011;57279;55.912;37.490;2023-02-01T03:43:05;19.42;;;7.00;;
69954;SDS011;57279;55.912;37.490;2023-02-01T03:45:36;17.27;;;6.78;;
69954;SDS011;57279;55.912;37.490;2023-02-01T03:48:07;18.25;;;6.88;;
69954;SDS011;57279;55.912;37.490;2023-02-01T03:50:35;20.55;;;7.18;;
69954;SDS011;57279;55.912;37.490;2023-02-01T03:53:10;21.10;;;7.50;;
69954;SDS011;57279;55.912;37.490;2023-02-01T03:55:43;18.80;;;6.93;;
69954;SDS011;57279;55.912;37.490;2023-02-01T03:58:13;18.45;;;6.95;;
69954;SDS011;57279;55.912;37.490;2023-02-01T04:00:55;21.15;;;6.82;;
69954;SDS011;57279;55.912;37.490;2023-02-01T04:03:23;23.73;;;6.85;;
69954;SDS011;57279;55.912;37.490;2023-02-01T04:05:50;22.30;;;7.43;;
69954;SDS011;57279;55.912;37.490;2023-02-01T04:08:20;19.88;;;7.35;;
69954;SDS011;57279;55.912;37.490;2023-02-01T04:10:46;18.75;;;6.80;;
69954;SDS011;57279;55.912;37.490;2023-02-01T04:13:12;20.25;;;7.47;;
69954;SDS011;57279;55.912;37.490;2023-02-01T04:15:38;19.05;;;7.30;;
69954;SDS011;57279;55.912;37.490;2023-02-01T04:18:04;22.55;;;7.88;;
69954;SDS011;57279;55.912;37.490;2023-02-01T04:20:30;20.08;;;8.07;;
69954;SDS011;57279;55.912;37.490;2023-02-01T04:22:56;23.58;;;8.23;;
69954;SDS011;57279;55.912;37.490;2023-02-01T04:25:21;36.40;;;15.88;;
69954;SDS011;57279;55.912;37.490;2023-02-01T04:27:48;22.58;;;8.65;;
69954;SDS011;57279;55.912;37.490;2023-02-01T04:30:14;23.45;;;8.38;;
69954;SDS011;57279;55.912;37.490;2023-02-01T04:32:40;21.60;;;7.32;;
69954;SDS011;57279;55.912;37.490;2023-02-01T04:35:06;19.50;;;7.18;;
69954;SDS011;57279;55.912;37.490;2023-02-01T04:37:33;23.38;;;7.82;;
69954;SDS011;57279;55.912;37.490;2023-02-01T04:39:59;22.25;;;7.85;;
69954;SDS011;57279;55.912;37.490;2023-02-01T04:42:25;20.45;;;7.90;;
69954;SDS011;57279;55.912;37.490;2023-02-01T04:44:50;21.58;;;7.78;;
69954;SDS011;57279;55.912;37.490;2023-02-01T04:47:16;21.92;;;8.15;;
69954;SDS011;57279;55.912;37.490;2023-02-01T04:49:42;20.85;;;7.38;;
69954;SDS011;57279;55.912;37.490;2023-02-01T04:52:07;23.58;;;7.95;;
69954;SDS011;57279;55.912;37.490;2023-02-01T04:54:33;19.92;;;7.70;;
69954;SDS011;57279;55.912;37.490;2023-02-01T04:56:59;21.90;;;8.40;;
69954;SDS011;57279;55.912;37.490;2023-02-01T04:59:25;21.02;;;7.22;;
69954;SDS011;57279;55.912;37.490;2023-02-01T05:01:51;21.30;;;8.18;;
69954;SDS011;57279;55.912;37.490;2023-02-01T05:04:16;25.20;;;8.32;;
69954;SDS011;57279;55.912;37.490;2023-02-01T05:06:44;21.17;;;7.85;;
69954;SDS011;57279;55.912;37.490;2023-02-01T05:09:10;21.65;;;7.93;;
69954;SDS011;57279;55.912;37.490;2023-02-01T05:11:36;23.98;;;8.23;;
69954;SDS011;57279;55.912;37.490;2023-02-01T05:14:20;23.02;;;7.90;;
69954;SDS011;57279;55.912;37.490;2023-02-01T05:16:46;26.52;;;7.97;;
69954;SDS011;57279;55.912;37.490;2023-02-01T05:19:11;23.98;;;8.15;;
69954;SDS011;57279;55.912;37.490;2023-02-01T05:21:37;19.63;;;8.13;;
69954;SDS011;57279;55.912;37.490;2023-02-01T05:24:03;21.25;;;8.27;;
69954;SDS011;57279;55.912;37.490;2023-02-01T05:26:36;27.70;;;7.95;;
69954;SDS011;57279;55.912;37.490;2023-02-01T05:29:02;20.35;;;7.75;;
69954;SDS011;57279;55.912;37.490;2023-02-01T05:31:28;24.73;;;8.82;;
69954;SDS011;57279;55.912;37.490;2023-02-01T05:33:54;23.38;;;8.35;;
69954;SDS011;57279;55.912;37.490;2023-02-01T05:36:20;27.40;;;9.52;;
69954;SDS011;57279;55.912;37.490;2023-02-01T05:38:45;21.02;;;8.02;;
69954;SDS011;57279;55.912;37.490;2023-02-01T05:41:11;24.42;;;8.43;;
69954;SDS011;57279;55.912;37.490;2023-02-01T05:43:37;28.65;;;8.95;;
69954;SDS011;57279;55.912;37.490;2023-02-01T05:46:02;22.98;;;9.27;;
69954;SDS011;57279;55.912;37.490;2023-02-01T05:48:28;23.60;;;8.27;;
69954;SDS011;57279;55.912;37.490;2023-02-01T05:50:54;25.77;;;8.85;;
69954;SDS011;57279;55.912;37.490;2023-02-01T05:53:19;25.73;;;9.27;;
69954;SDS011;57279;55.912;37.490;2023-02-01T05:55:45;26.50;;;9.45;;
69954;SDS011;57279;55.912;37.490;2023-02-01T05:58:11;23.05;;;8.05;;
69954;SDS011;57279;55.912;37.490;2023-02-01T06:00:37;26.02;;;8.82;;
69954;SDS011;57279;55.912;37.490;2023-02-01T06:03:03;23.77;;;8.27;;
69954;SDS011;57279;55.912;37.490;2023-02-01T06:05:29;21.27;;;8.65;;
69954;SDS011;57279;55.912;37.490;2023-02-01T06:07:55;27.65;;;9.63;;
69954;SDS011;57279;55.912;37.490;2023-02-01T06:10:21;26.83;;;9.82;;
69954;SDS011;57279;55.912;37.490;2023-02-01T06:12:46;32.47;;;10.35;;
69954;SDS011;57279;55.912;37.490;2023-02-01T06:15:13;31.55;;;10.77;;
69954;SDS011;57279;55.912;37.490;2023-02-01T06:17:46;27.23;;;9.07;;
69954;SDS011;57279;55.912;37.490;2023-02-01T06:20:13;28.08;;;9.48;;
69954;SDS011;57279;55.912;37.490;2023-02-01T06:22:40;25.50;;;10.18;;
69954;SDS011;57279;55.912;37.490;2023-02-01T06:25:06;28.15;;;9.55;;
69954;SDS011;57279;55.912;37.490;2023-02-01T06:27:34;28.92;;;10.25;;
69954;SDS011;57279;55.912;37.490;2023-02-01T06:29:59;28.35;;;10.10;;
69954;SDS011;57279;55.912;37.490;2023-02-01T06:32:25;26.83;;;8.98;;
69954;SDS011;57279;55.912;37.490;2023-02-01T06:34:51;28.50;;;9.40;;
69954;SDS011;57279;55.912;37.490;2023-02-01T06:37:21;24.55;;;9.02;;
69954;SDS011;57279;55.912;37.490;2023-02-01T06:39:48;30.90;;;9.88;;
69954;SDS011;57279;55.912;37.490;2023-02-01T06:42:14;27.48;;;8.38;;
69954;SDS011;57279;55.912;37.490;2023-02-01T06:44:40;33.28;;;10.00;;
69954;SDS011;57279;55.912;37.490;2023-02-01T06:47:06;27.85;;;9.88;;
69954;SDS011;57279;55.912;37.490;2023-02-01T06:49:31;28.25;;;10.88;;
69954;SDS011;57279;55.912;37.490;2023-02-01T06:51:57;32.75;;;10.93;;
69954;SDS011;57279;55.912;37.490;2023-02-01T06:54:25;29.00;;;10.38;;
69954;SDS011;57279;55.912;37.490;2023-02-01T06:56:52;31.98;;;10.07;;
69954;SDS011;57279;55.912;37.490;2023-02-01T06:59:17;30.63;;;10.65;;
69954;SDS011;57279;55.912;37.490;2023-02-01T07:01:43;27.70;;;9.95;;
69954;SDS011;57279;55.912;37.490;2023-02-01T07:04:10;29.65;;;9.90;;
69954;SDS011;57279;55.912;37.490;2023-02-01T07:06:37;33.88;;;10.10;;
69954;SDS011;57279;55.912;37.490;2023-02-01T07:09:03;28.63;;;9.50;;
69954;SDS011;57279;55.912;37.490;2023-02-01T07:11:29;29.25;;;10.45;;
69954;SDS011;57279;55.912;37.490;2023-02-01T07:13:55;30.45;;;8.98;;
69954;SDS011;57279;55.912;37.490;2023-02-01T07:16:21;30.15;;;10.93;;
69954;SDS011;57279;55.912;37.490;2023-02-01T07:18:47;35.03;;;10.10;;
69954;SDS011;57279;55.912;37.490;2023-02-01T07:21:15;28.30;;;10.05;;
69954;SDS011;57279;55.912;37.490;2023-02-01T07:23:41;31.75;;;10.23;;
69954;SDS011;57279;55.912;37.490;2023-02-01T07:26:07;27.80;;;10.27;;
69954;SDS011;57279;55.912;37.490;2023-02-01T07:28:37;28.80;;;10.18;;
69954;SDS011;57279;55.912;37.490;2023-02-01T07:31:03;27.73;;;9.90;;
69954;SDS011;57279;55.912;37.490;2023-02-01T07:33:33;34.42;;;11.38;;
69954;SDS011;57279;55.912;37.490;2023-02-01T07:36:00;32.33;;;10.15;;
69954;SDS011;57279;55.912;37.490;2023-02-01T07:38:28;27.33;;;9.48;;
69954;SDS011;57279;55.912;37.490;2023-02-01T07:41:00;26.30;;;9.60;;
69954;SDS011;57279;55.912;37.490;2023-02-01T07:43:27;36.30;;;10.63;;
69954;SDS011;57279;55.912;37.490;2023-02-01T07:45:54;32.00;;;10.82;;
69954;SDS011;57279;55.912;37.490;2023-02-01T07:48:21;33.33;;;11.45;;
69954;SDS011;57279;55.912;37.490;2023-02-01T07:50:48;32.20;;;11.43;;
69954;SDS011;57279;55.912;37.490;2023-02-01T07:53:14;35.25;;;10.77;;
69954;SDS011;57279;55.912;37.490;2023-02-01T07:55:40;30.15;;;10.63;;
69954;SDS011;57279;55.912;37.490;2023-02-01T08:00:31;33.08;;;10.43;;
69954;SDS011;57279;55.912;37.490;2023-02-01T08:03:16;29.85;;;10.80;;
69954;SDS011;57279;55.912;37.490;2023-02-01T08:05:42;32.08;;;10.85;;
69954;SDS011;57279;55.912;37.490;2023-02-01T08:08:08;34.90;;;10.98;;
69954;SDS011;57279;55.912;37.490;2023-02-01T08:10:34;34.05;;;10.38;;
69954;SDS011;57279;55.912;37.490;2023-02-01T08:13:00;30.63;;;10.70;;
69954;SDS011;57279;55.912;37.490;2023-02-01T08:15:28;29.60;;;11.15;;
69954;SDS011;57279;55.912;37.490;2023-02-01T08:17:54;34.80;;;9.85;;
69954;SDS011;57279;55.912;37.490;2023-02-01T08:20:20;35.28;;;10.43;;
69954;SDS011;57279;55.912;37.490;2023-02-01T08:22:48;29.55;;;10.02;;
69954;SDS011;57279;55.912;37.490;2023-02-01T08:25:17;32.15;;;10.35;;
69954;SDS011;57279;55.912;37.490;2023-02-01T08:27:43;30.20;;;10.23;;
69954;SDS011;57279;55.912;37.490;2023-02-01T08:30:09;27.38;;;10.18;;
69954;SDS011;57279;55.912;37.490;2023-02-01T08:32:36;30.85;;;12.07;;
69954;SDS011;57279;55.912;37.490;2023-02-01T08:35:02;34.45;;;10.10;;
69954;SDS011;57279;55.912;37.490;2023-02-01T08:37:29;26.95;;;9.63;;
69954;SDS011;57279;55.912;37.490;2023-02-01T08:39:54;29.20;;;9.98;;
69954;SDS011;57279;55.912;37.490;2023-02-01T08:42:20;27.70;;;10.15;;
69954;SDS011;57279;55.912;37.490;2023-02-01T08:45:04;34.65;;;10.80;;
69954;SDS011;57279;55.912;37.490;2023-02-01T08:47:30;31.00;;;10.77;;
69954;SDS011;57279;55.912;37.490;2023-02-01T08:49:56;27.73;;;10.63;;
69954;SDS011;57279;55.912;37.490;2023-02-01T08:52:22;30.00;;;10.60;;
69954;SDS011;57279;55.912;37.490;2023-02-01T08:54:48;31.88;;;10.75;;
69954;SDS011;57279;55.912;37.490;2023-02-01T08:57:14;33.47;;;11.05;;
69954;SDS011;57279;55.912;37.490;2023-02-01T08:59:39;28.92;;;10.93;;
69954;SDS011;57279;55.912;37.490;2023-02-01T09:02:05;34.28;;;10.95;;
69954;SDS011;57279;55.912;37.490;2023-02-01T09:04:31;30.90;;;10.73;;
69954;SDS011;57279;55.912;37.490;2023-02-01T09:06:57;31.45;;;10.90;;
69954;SDS011;57279;55.912;37.490;2023-02-01T09:09:23;30.98;;;11.20;;
69954;SDS011;57279;55.912;37.490;2023-02-01T09:11:49;28.83;;;9.85;;
69954;SDS011;57279;55.912;37.490;2023-02-01T09:14:17;30.73;;;10.38;;
69954;SDS011;57279;55.912;37.490;2023-02-01T09:16:43;30.17;;;10.70;;
69954;SDS011;57279;55.912;37.490;2023-02-01T09:19:09;29.00;;;10.73;;
69954;SDS011;57279;55.912;37.490;2023-02-01T09:21:35;30.92;;;10.30;;
69954;SDS011;57279;55.912;37.490;2023-02-01T09:24:01;31.40;;;10.85;;
69954;SDS011;57279;55.912;37.490;2023-02-01T09:26:26;31.60;;;10.57;;
69954;SDS011;57279;55.912;37.490;2023-02-01T09:28:52;32.08;;;11.38;;
69954;SDS011;57279;55.912;37.490;2023-02-01T09:31:18;31.30;;;10.43;;
69954;SDS011;57279;55.912;37.490;2023-02-01T09:33:44;32.58;;;10.98;;
69954;SDS011;57279;55.912;37.490;2023-02-01T09:36:10;35.97;;;11.57;;
69954;SDS011;57279;55.912;37.490;2023-02-01T09:38:36;32.85;;;11.40;;
69954;SDS011;57279;55.912;37.490;2023-02-01T09:41:06;36.95;;;11.88;;
69954;SDS011;57279;55.912;37.490;2023-02-01T09:44:01;39.05;;;12.88;;
69954;SDS011;57279;55.912;37.490;2023-02-01T09:46:32;38.53;;;12.05;;
69954;SDS011;57279;55.912;37.490;2023-02-01T09:49:08;30.60;;;11.07;;
69954;SDS011;57279;55.912;37.490;2023-02-01T09:51:42;34.38;;;12.02;;
69954;SDS011;57279;55.912;37.490;2023-02-01T09:54:11;35.33;;;11.93;;
69954;SDS011;57279;55.912;37.490;2023-02-01T09:56:46;32.78;;;11.75;;
69954;SDS011;57279;55.912;37.490;2023-02-01T10:02:23;30.90;;;11.52;;
69954;SDS011;57279;55.912;37.490;2023-02-01T10:04:52;36.60;;;11.55;;
69954;SDS011;57279;55.912;37.490;2023-02-01T10:07:30;32.92;;;11.18;;
69954;SDS011;57279;55.912;37.490;2023-02-01T10:13:31;29.20;;;10.82;;
69954;SDS011;57279;55.912;37.490;2023-02-01T10:18:37;28.20;;;10.40;;
69954;SDS011;57279;55.912;37.490;2023-02-01T10:26:24;28.80;;;10.80;;
69954;SDS011;57279;55.912;37.490;2023-02-01T10:28:52;29.13;;;11.32;;
69954;SDS011;57279;55.912;37.490;2023-02-01T10:31:22;29.50;;;11.02;;
69954;SDS011;57279;55.912;37.490;2023-02-01T10:33:57;30.13;;;10.43;;
69954;SDS011;57279;55.912;37.490;2023-02-01T10:36:35;28.85;;;10.40;;
69954;SDS011;57279;55.912;37.490;2023-02-01T10:39:06;28.77;;;10.10;;
69954;SDS011;57279;55.912;37.490;2023-02-01T10:41:38;24.52;;;9.95;;
69954;SDS011;57279;55.912;37.490;2023-02-01T10:44:07;29.13;;;10.25;;
69954;SDS011;57279;55.912;37.490;2023-02-01T10:46:38;30.33;;;11.10;;
69954;SDS011;57279;55.912;37.490;2023-02-01T10:49:04;26.80;;;9.73;;
69954;SDS011;57279;55.912;37.490;2023-02-01T10:51:42;23.92;;;9.55;;
69954;SDS011;57279;55.912;37.490;2023-02-01T10:54:36;31.52;;;9.95;;
69954;SDS011;57279;55.912;37.490;2023-02-01T10:57:07;26.13;;;10.35;;
69954;SDS011;57279;55.912;37.490;2023-02-01T10:59:55;26.83;;;9.85;;
69954;SDS011;57279;55.912;37.490;2023-02-01T11:05:00;24.75;;;10.23;;
69954;SDS011;57279;55.912;37.490;2023-02-01T11:07:28;25.75;;;10.85;;
69954;SDS011;57279;55.912;37.490;2023-02-01T11:09:54;23.02;;;9.18;;
69954;SDS011;57279;55.912;37.490;2023-02-01T11:12:28;26.60;;;10.25;;
69954;SDS011;57279;55.912;37.490;2023-02-01T11:15:15;25.35;;;9.55;;
69954;SDS011;57279;55.912;37.490;2023-02-01T11:17:46;21.95;;;8.88;;
69954;SDS011;57279;55.912;37.490;2023-02-01T11:20:20;25.63;;;9.18;;
69954;SDS011;57279;55.912;37.490;2023-02-01T11:23:03;22.88;;;9.27;;
69954;SDS011;57279;55.912;37.490;2023-02-01T11:25:28;23.38;;;9.82;;
69954;SDS011;57279;55.912;37.490;2023-02-01T11:27:56;22.80;;;9.40;;
69954;SDS011;57279;55.912;37.490;2023-02-01T11:30:26;27.58;;;9.75;;
69954;SDS011;57279;55.912;37.490;2023-02-01T11:32:57;31.15;;;10.77;;
69954;SDS011;57279;55.912;37.490;2023-02-01T11:35:24;26.58;;;9.73;;
69954;SDS011;57279;55.912;37.490;2023-02-01T11:37:54;27.42;;;10.63;;
69954;SDS011;57279;55.912;37.490;2023-02-01T11:40:45;26.48;;;10.13;;
69954;SDS011;57279;55.912;37.490;2023-02-01T11:43:15;28.10;;;9.88;;
69954;SDS011;57279;55.912;37.490;2023-02-01T11:46:01;25.17;;;10.02;;
69954;SDS011;57279;55.912;37.490;2023-02-01T11:48:29;26.95;;;10.70;;
69954;SDS011;57279;55.912;37.490;2023-02-01T11:56:28;27.00;;;8.98;;
69954;SDS011;57279;55.912;37.490;2023-02-01T12:07:20;25.27;;;9.95;;
69954;SDS011;57279;55.912;37.490;2023-02-01T12:24:16;27.70;;;11.32;;
69954;SDS011;57279;55.912;37.490;2023-02-01T12:46:03;33.83;;;12.80;;
69954;SDS011;57279;55.912;37.490;2023-02-01T12:51:38;32.50;;;12.23;;
69954;SDS011;57279;55.912;37.490;2023-02-01T12:56:59;31.75;;;12.20;;
69954;SDS011;57279;55.912;37.490;2023-02-01T13:02:18;30.58;;;12.23;;
69954;SDS011;57279;55.912;37.490;2023-02-01T13:05:34;30.08;;;11.38;;
69954;SDS011;57279;55.912;37.490;2023-02-01T13:13:25;28.30;;;10.40;;
69954;SDS011;57279;55.912;37.490;2023-02-01T13:18:43;25.63;;;10.13;;
69954;SDS011;57279;55.912;37.490;2023-02-01T13:21:15;25.60;;;9.43;;
69954;SDS011;57279;55.912;37.490;2023-02-01T13:23:46;27.25;;;9.48;;
69954;SDS011;57279;55.912;37.490;2023-02-01T13:26:14;24.92;;;10.15;;
69954;SDS011;57279;55.912;37.490;2023-02-01T13:42:13;25.00;;;9.98;;
69954;SDS011;57279;55.912;37.490;2023-02-01T13:44:49;24.15;;;9.73;;
69954;SDS011;57279;55.912;37.490;2023-02-01T13:47:40;26.10;;;10.32;;
69954;SDS011;57279;55.912;37.490;2023-02-01T13:52:50;26.20;;;9.98;;
69954;SDS011;57279;55.912;37.490;2023-02-01T13:57:48;24.13;;;10.55;;
69954;SDS011;57279;55.912;37.490;2023-02-01T14:00:34;21.13;;;8.68;;
69954;SDS011;57279;55.912;37.490;2023-02-01T14:26:23;22.85;;;8.60;;
69954;SDS011;57279;55.912;37.490;2023-02-01T14:31:30;25.23;;;7.82;;
69954;SDS011;57279;55.912;37.490;2023-02-01T14:33:59;21.83;;;8.50;;
69954;SDS011;57279;55.912;37.490;2023-02-01T14:36:38;22.98;;;8.88;;
69954;SDS011;57279;55.912;37.490;2023-02-01T14:39:24;19.92;;;7.40;;
69954;SDS011;57279;55.912;37.490;2023-02-01T14:41:59;19.90;;;7.35;;
69954;SDS011;57279;55.912;37.490;2023-02-01T14:44:28;21.20;;;7.80;;
69954;SDS011;57279;55.912;37.490;2023-02-01T14:52:22;20.90;;;8.07;;
69954;SDS011;57279;55.912;37.490;2023-02-01T14:54:55;23.33;;;7.72;;
69954;SDS011;57279;55.912;37.490;2023-02-01T14:57:26;19.75;;;7.75;;
69954;SDS011;57279;55.912;37.490;2023-02-01T14:59:57;18.90;;;6.57;;
69954;SDS011;57279;55.912;37.490;2023-02-01T15:02:30;19.58;;;7.80;;
69954;SDS011;57279;55.912;37.490;2023-02-01T15:05:00;22.15;;;8.23;;
69954;SDS011;57279;55.912;37.490;2023-02-01T15:07:25;19.85;;;7.28;;
69954;SDS011;57279;55.912;37.490;2023-02-01T15:09:56;22.40;;;7.78;;
